Time;durP1;ratioP1;P1;durP2;ratioP2;P2;SDS_P1;SDS_P2;PMS_P1;PMS_P2;Temp;Humidity;BMP_temperature;BMP_pressure;BME280_temperature;BME280_humidity;BME280_pressure;Samples;Min_cycle;Max_cycle;Signal;HPM_P1;HPM_P2
2021/07/18 00:00:52;;;;;;;22.40;21.17;;;;;;;;;;5091153;28;20450;-68
2021/07/18 00:03:19;;;;;;;22.70;21.40;;;;;;;;;;5091315;28;20448;-68
2021/07/18 00:05:48;;;;;;;21.87;20.67;;;;;;;;;;5090273;28;20453;-68
2021/07/18 00:08:15;;;;;;;22.47;21.27;;;;;;;;;;5090818;28;20820;-69
2021/07/18 00:10:42;;;;;;;22.50;21.20;;;;;;;;;;5091174;28;20449;-69
2021/07/18 00:13:09;;;;;;;22.60;21.40;;;;;;;;;;5090389;28;20482;-69
2021/07/18 00:15:36;;;;;;;23.00;21.73;;;;;;;;;;5091371;28;20454;-69
2021/07/18 00:18:03;;;;;;;23.77;22.20;;;;;;;;;;5093936;28;20469;-68
2021/07/18 00:20:30;;;;;;;22.87;21.17;;;;;;;;;;5095045;28;20452;-70
2021/07/18 00:22:59;;;;;;;22.80;21.40;;;;;;;;;;5093806;28;20614;-68
2021/07/18 00:25:26;;;;;;;22.07;20.77;;;;;;;;;;5094830;28;20477;-69
2021/07/18 00:27:53;;;;;;;22.43;21.13;;;;;;;;;;5093824;28;20473;-69
2021/07/18 00:30:20;;;;;;;22.13;20.83;;;;;;;;;;5094339;28;20446;-69
2021/07/18 00:32:47;;;;;;;22.40;20.90;;;;;;;;;;5094459;28;20488;-69
2021/07/18 00:35:14;;;;;;;21.00;19.70;;;;;;;;;;5081224;28;20455;-69
2021/07/18 00:37:41;;;;;;;22.57;21.20;;;;;;;;;;5094655;28;20466;-69
2021/07/18 00:40:11;;;;;;;22.50;21.07;;;;;;;;;;5093722;28;20452;-68
2021/07/18 00:42:38;;;;;;;21.40;20.20;;;;;;;;;;5094464;28;21098;-68
2021/07/18 00:45:07;;;;;;;22.10;20.50;;;;;;;;;;5093017;28;20449;-69
2021/07/18 00:47:34;;;;;;;22.57;20.97;;;;;;;;;;5094514;28;20466;-69
2021/07/18 00:50:05;;;;;;;22.30;21.00;;;;;;;;;;5083771;28;20451;-70
2021/07/18 00:52:32;;;;;;;21.57;20.37;;;;;;;;;;5074338;28;20855;-69
2021/07/18 00:54:59;;;;;;;21.93;20.73;;;;;;;;;;5090998;28;20452;-70
2021/07/18 00:57:27;;;;;;;20.90;19.70;;;;;;;;;;5093547;28;21007;-69
2021/07/18 00:59:55;;;;;;;21.33;20.20;;;;;;;;;;5093572;28;20449;-70
2021/07/18 01:02:22;;;;;;;22.20;20.90;;;;;;;;;;5093789;28;20446;-69
2021/07/18 01:04:49;;;;;;;22.03;20.73;;;;;;;;;;5093296;28;20450;-69
2021/07/18 01:07:16;;;;;;;22.17;20.97;;;;;;;;;;5093436;28;21022;-69
2021/07/18 01:09:44;;;;;;;21.97;20.77;;;;;;;;;;5093527;28;20454;-69
2021/07/18 01:12:11;;;;;;;21.40;20.20;;;;;;;;;;5092501;28;20450;-70
2021/07/18 01:14:39;;;;;;;21.73;20.63;;;;;;;;;;5093610;28;20450;-69
2021/07/18 01:17:06;;;;;;;21.40;20.20;;;;;;;;;;5092423;28;20484;-69
2021/07/18 01:19:35;;;;;;;22.20;20.80;;;;;;;;;;5094103;28;20446;-70
2021/07/18 01:22:04;;;;;;;22.07;20.80;;;;;;;;;;5092925;28;20517;-70
2021/07/18 01:24:32;;;;;;;21.43;20.23;;;;;;;;;;5093565;28;20529;-69
2021/07/18 01:26:59;;;;;;;21.90;20.70;;;;;;;;;;5093210;28;20473;-69
2021/07/18 01:29:28;;;;;;;21.97;20.87;;;;;;;;;;5092354;28;20546;-69
2021/07/18 01:31:55;;;;;;;22.03;20.80;;;;;;;;;;5073442;28;20450;-68
2021/07/18 01:34:22;;;;;;;21.30;20.20;;;;;;;;;;5093432;28;20482;-69
2021/07/18 01:36:51;;;;;;;22.27;20.87;;;;;;;;;;5092770;28;21008;-69
2021/07/18 01:39:19;;;;;;;22.37;21.07;;;;;;;;;;5092748;28;20472;-69
2021/07/18 01:41:48;;;;;;;21.93;20.70;;;;;;;;;;5079590;28;20453;-69
2021/07/18 01:44:15;;;;;;;22.37;20.93;;;;;;;;;;5083471;28;20461;-68
2021/07/18 01:46:42;;;;;;;22.37;21.10;;;;;;;;;;5093014;28;20474;-69
2021/07/18 01:49:11;;;;;;;23.50;21.80;;;;;;;;;;5092483;28;20453;-71
2021/07/18 01:51:38;;;;;;;22.83;21.53;;;;;;;;;;5092765;28;20545;-70
2021/07/18 01:54:07;;;;;;;22.97;21.07;;;;;;;;;;5092510;28;20492;-69
2021/07/18 01:56:35;;;;;;;23.07;21.50;;;;;;;;;;5084368;28;20480;-69
2021/07/18 01:59:02;;;;;;;22.90;21.37;;;;;;;;;;5092947;28;20823;-69
2021/07/18 02:01:31;;;;;;;23.27;21.80;;;;;;;;;;5092398;28;20452;-68
2021/07/18 02:03:59;;;;;;;23.23;21.70;;;;;;;;;;5092947;28;20524;-69
2021/07/18 02:06:27;;;;;;;21.60;20.40;;;;;;;;;;5091834;28;20480;-69
2021/07/18 02:08:55;;;;;;;22.40;20.90;;;;;;;;;;5092743;28;20826;-71
2021/07/18 02:11:23;;;;;;;22.47;21.13;;;;;;;;;;5091442;28;20450;-71
2021/07/18 02:13:52;;;;;;;22.10;20.90;;;;;;;;;;5091196;28;20488;-68
2021/07/18 02:16:20;;;;;;;22.23;20.97;;;;;;;;;;5092100;28;20472;-69
2021/07/18 02:18:47;;;;;;;22.50;21.07;;;;;;;;;;5092520;28;20955;-69
2021/07/18 02:21:14;;;;;;;21.43;20.23;;;;;;;;;;5092124;28;20454;-70
2021/07/18 02:23:42;;;;;;;21.97;20.77;;;;;;;;;;5092066;28;20454;-68
2021/07/18 02:26:09;;;;;;;22.30;20.73;;;;;;;;;;5092250;28;20448;-69
2021/07/18 02:28:36;;;;;;;21.83;20.43;;;;;;;;;;5091544;28;20452;-68
2021/07/18 02:31:05;;;;;;;22.13;20.83;;;;;;;;;;5092561;28;20456;-69
2021/07/18 02:33:33;;;;;;;22.67;21.57;;;;;;;;;;5091596;28;20571;-69
2021/07/18 02:36:00;;;;;;;22.63;21.23;;;;;;;;;;5092265;28;20929;-68
2021/07/18 02:38:27;;;;;;;22.30;21.10;;;;;;;;;;5091350;28;20450;-69
2021/07/18 02:40:54;;;;;;;22.13;20.77;;;;;;;;;;5092051;28;20453;-69
2021/07/18 02:43:22;;;;;;;22.00;20.60;;;;;;;;;;5091326;28;20443;-69
2021/07/18 02:45:49;;;;;;;22.87;21.30;;;;;;;;;;5090429;28;20454;-68
2021/07/18 02:48:17;;;;;;;21.20;20.00;;;;;;;;;;5091017;28;20454;-69
2021/07/18 02:50:44;;;;;;;22.27;20.83;;;;;;;;;;5091795;28;20449;-68
2021/07/18 02:53:12;;;;;;;22.27;21.10;;;;;;;;;;5091621;28;20489;-68
2021/07/18 02:55:39;;;;;;;21.90;20.70;;;;;;;;;;5081481;28;20476;-70
2021/07/18 02:58:06;;;;;;;22.67;21.13;;;;;;;;;;5091276;28;20496;-69
2021/07/18 03:00:33;;;;;;;22.27;21.00;;;;;;;;;;5090591;28;20445;-69
2021/07/18 03:03:00;;;;;;;22.20;20.80;;;;;;;;;;5091535;28;20464;-68
2021/07/18 03:05:29;;;;;;;21.80;20.50;;;;;;;;;;5092083;28;20450;-70
2021/07/18 03:07:56;;;;;;;22.40;21.10;;;;;;;;;;5091981;28;20481;-69
2021/07/18 03:10:24;;;;;;;22.73;21.23;;;;;;;;;;5091313;28;20446;-71
2021/07/18 03:12:51;;;;;;;22.17;20.97;;;;;;;;;;5091075;28;20499;-69
2021/07/18 03:15:18;;;;;;;22.87;21.47;;;;;;;;;;5091766;28;20826;-70
2021/07/18 03:17:46;;;;;;;21.87;20.57;;;;;;;;;;5092230;28;20476;-69
2021/07/18 03:20:14;;;;;;;21.73;20.43;;;;;;;;;;5091156;28;20468;-69
2021/07/18 03:22:43;;;;;;;21.93;20.80;;;;;;;;;;5092081;28;20456;-71
2021/07/18 03:25:11;;;;;;;22.57;21.20;;;;;;;;;;5091711;28;20454;-70
2021/07/18 03:27:38;;;;;;;22.30;21.10;;;;;;;;;;5091791;28;20472;-71
2021/07/18 03:30:06;;;;;;;22.30;21.10;;;;;;;;;;5090800;28;20454;-70
2021/07/18 03:32:33;;;;;;;22.30;20.90;;;;;;;;;;5091688;28;20441;-69
2021/07/18 03:35:01;;;;;;;22.10;20.90;;;;;;;;;;5090729;28;21004;-70
2021/07/18 03:37:28;;;;;;;21.40;20.30;;;;;;;;;;5091561;28;20852;-69
2021/07/18 03:39:57;;;;;;;22.70;21.40;;;;;;;;;;5090780;28;20454;-69
2021/07/18 03:42:24;;;;;;;22.17;21.03;;;;;;;;;;5091511;28;20448;-69
2021/07/18 03:44:51;;;;;;;21.60;20.43;;;;;;;;;;5091069;28;20520;-69
2021/07/18 03:47:18;;;;;;;21.90;20.60;;;;;;;;;;5091509;28;20466;-69
2021/07/18 03:49:45;;;;;;;22.80;21.60;;;;;;;;;;5086241;28;20803;-71
2021/07/18 03:52:12;;;;;;;22.80;21.40;;;;;;;;;;5094478;28;20445;-69
2021/07/18 03:54:39;;;;;;;24.00;21.93;;;;;;;;;;5094410;28;20846;-70
2021/07/18 03:57:08;;;;;;;23.40;21.80;;;;;;;;;;5095669;28;20472;-68
2021/07/18 03:59:35;;;;;;;22.60;21.17;;;;;;;;;;5095600;28;20450;-69
2021/07/18 04:02:02;;;;;;;22.73;21.43;;;;;;;;;;5097202;28;20441;-69
2021/07/18 04:04:29;;;;;;;23.07;21.57;;;;;;;;;;5095292;28;20450;-69
2021/07/18 04:06:56;;;;;;;22.67;21.37;;;;;;;;;;5094170;28;20481;-68
2021/07/18 04:09:23;;;;;;;22.70;21.40;;;;;;;;;;5094897;28;20442;-69
2021/07/18 04:11:50;;;;;;;22.77;21.37;;;;;;;;;;5094726;28;20959;-69
2021/07/18 04:14:19;;;;;;;22.27;21.00;;;;;;;;;;5094855;28;20482;-69
2021/07/18 04:16:46;;;;;;;22.50;21.13;;;;;;;;;;5094408;28;20998;-68
2021/07/18 04:19:13;;;;;;;22.03;20.73;;;;;;;;;;5094789;28;20446;-69
2021/07/18 04:21:40;;;;;;;22.37;21.07;;;;;;;;;;5094883;28;20789;-68
2021/07/18 04:24:07;;;;;;;22.17;20.77;;;;;;;;;;5094005;28;20452;-70
2021/07/18 04:26:34;;;;;;;22.50;21.20;;;;;;;;;;5094461;28;20847;-69
2021/07/18 04:29:01;;;;;;;23.40;22.10;;;;;;;;;;5093798;28;20451;-70
2021/07/18 04:31:30;;;;;;;23.00;21.60;;;;;;;;;;5094332;28;20472;-69
2021/07/18 04:33:57;;;;;;;23.73;22.40;;;;;;;;;;5094426;28;20848;-68
2021/07/18 04:36:24;;;;;;;23.40;21.90;;;;;;;;;;5094951;28;20472;-69
2021/07/18 04:38:51;;;;;;;23.10;21.60;;;;;;;;;;5094376;28;20949;-69
2021/07/18 04:41:18;;;;;;;22.70;21.50;;;;;;;;;;5083434;28;20457;-69
2021/07/18 04:43:45;;;;;;;23.00;21.70;;;;;;;;;;5085449;28;20451;-69
2021/07/18 04:46:12;;;;;;;22.97;21.67;;;;;;;;;;5074075;28;20477;-69
2021/07/18 04:48:41;;;;;;;22.40;21.20;;;;;;;;;;5090965;28;20454;-69
2021/07/18 04:51:08;;;;;;;22.97;21.57;;;;;;;;;;5093786;28;20450;-69
2021/07/18 04:53:35;;;;;;;21.43;20.23;;;;;;;;;;5092909;28;20501;-69
2021/07/18 04:56:02;;;;;;;22.07;20.87;;;;;;;;;;5077076;28;20461;-70
2021/07/18 04:58:30;;;;;;;21.93;20.83;;;;;;;;;;5074104;28;20495;-69
2021/07/18 05:00:57;;;;;;;21.80;20.67;;;;;;;;;;5093550;28;20457;-69
2021/07/18 05:03:24;;;;;;;22.63;21.43;;;;;;;;;;5093219;28;20454;-70
2021/07/18 05:05:52;;;;;;;23.03;21.70;;;;;;;;;;5093228;28;20545;-69
2021/07/18 05:08:20;;;;;;;22.40;20.93;;;;;;;;;;5094556;28;20967;-72
2021/07/18 05:10:47;;;;;;;22.53;21.17;;;;;;;;;;5093183;28;20540;-73
2021/07/18 05:13:15;;;;;;;22.60;21.30;;;;;;;;;;5092961;28;20450;-72
2021/07/18 05:15:42;;;;;;;22.57;21.37;;;;;;;;;;5093483;28;20976;-72
2021/07/18 05:18:13;;;;;;;23.30;22.00;;;;;;;;;;5092457;28;20470;-72
2021/07/18 05:20:40;;;;;;;23.23;21.90;;;;;;;;;;5094446;28;20448;-72
2021/07/18 05:23:09;;;;;;;23.10;21.70;;;;;;;;;;5093125;28;20446;-72
2021/07/18 05:25:36;;;;;;;23.47;22.07;;;;;;;;;;5094025;28;20472;-72
2021/07/18 05:28:03;;;;;;;23.77;22.20;;;;;;;;;;5092660;28;20988;-72
2021/07/18 05:30:30;;;;;;;23.33;22.10;;;;;;;;;;5092241;28;20460;-72
2021/07/18 05:32:57;;;;;;;23.40;22.10;;;;;;;;;;5092761;28;20841;-73
2021/07/18 05:35:25;;;;;;;22.90;21.60;;;;;;;;;;5093831;28;20515;-73
2021/07/18 05:37:52;;;;;;;23.97;22.27;;;;;;;;;;5093417;28;20465;-73
2021/07/18 05:40:21;;;;;;;22.87;21.53;;;;;;;;;;5093160;28;20442;-72
2021/07/18 05:42:48;;;;;;;23.33;21.90;;;;;;;;;;5092473;28;20454;-73
2021/07/18 05:45:15;;;;;;;22.90;21.60;;;;;;;;;;5092692;28;20976;-73
2021/07/18 05:47:43;;;;;;;23.67;22.30;;;;;;;;;;5091780;28;20477;-72
2021/07/18 05:50:10;;;;;;;23.80;22.43;;;;;;;;;;5093170;28;20450;-72
2021/07/18 05:52:37;;;;;;;23.43;22.00;;;;;;;;;;5092660;28;20487;-72
2021/07/18 05:55:05;;;;;;;23.03;21.77;;;;;;;;;;5092765;28;20489;-72
2021/07/18 05:57:34;;;;;;;23.00;21.70;;;;;;;;;;5090975;28;21013;-72
2021/07/18 06:00:02;;;;;;;22.73;21.53;;;;;;;;;;5093250;28;20450;-72
2021/07/18 06:02:29;;;;;;;22.70;21.50;;;;;;;;;;5092686;28;20461;-73
2021/07/18 06:04:56;;;;;;;22.60;21.30;;;;;;;;;;5091821;28;20945;-72
2021/07/18 06:07:23;;;;;;;23.33;21.90;;;;;;;;;;5091743;28;20478;-73
2021/07/18 06:09:50;;;;;;;24.27;22.50;;;;;;;;;;5072571;28;20443;-72
2021/07/18 06:12:17;;;;;;;24.10;22.60;;;;;;;;;;5072255;28;20453;-72
2021/07/18 06:14:46;;;;;;;23.57;22.17;;;;;;;;;;5091431;28;20485;-72
2021/07/18 06:17:13;;;;;;;22.90;21.70;;;;;;;;;;5092211;28;20810;-72
2021/07/18 06:19:40;;;;;;;23.60;22.30;;;;;;;;;;5082175;28;20447;-72
2021/07/18 06:22:08;;;;;;;24.03;22.40;;;;;;;;;;5071983;28;20446;-72
2021/07/18 06:24:35;;;;;;;23.53;21.87;;;;;;;;;;5088756;28;20449;-72
2021/07/18 06:27:02;;;;;;;25.07;22.97;;;;;;;;;;5072896;28;20471;-70
2021/07/18 06:29:30;;;;;;;24.10;22.10;;;;;;;;;;5087752;28;20450;-71
2021/07/18 06:31:58;;;;;;;22.93;21.57;;;;;;;;;;5092911;28;20450;-71
2021/07/18 06:34:25;;;;;;;22.40;20.90;;;;;;;;;;5092592;28;21008;-71
2021/07/18 06:36:52;;;;;;;22.70;21.30;;;;;;;;;;5091893;28;20477;-70
2021/07/18 06:39:20;;;;;;;23.20;21.80;;;;;;;;;;5085782;28;20452;-72
2021/07/18 06:41:48;;;;;;;22.73;21.40;;;;;;;;;;5092271;28;20454;-71
2021/07/18 06:44:15;;;;;;;22.63;21.40;;;;;;;;;;5092150;28;20447;-71
2021/07/18 06:46:42;;;;;;;22.70;21.30;;;;;;;;;;5092519;28;20474;-71
2021/07/18 06:49:11;;;;;;;22.70;21.30;;;;;;;;;;5091831;28;20446;-70
2021/07/18 06:51:38;;;;;;;22.93;21.60;;;;;;;;;;5089115;28;20446;-71
2021/07/18 06:54:05;;;;;;;22.87;21.47;;;;;;;;;;5091329;28;20485;-69
2021/07/18 06:56:32;;;;;;;22.43;21.13;;;;;;;;;;5092211;28;20877;-71
2021/07/18 06:59:00;;;;;;;22.67;21.37;;;;;;;;;;5092148;28;20460;-69
2021/07/18 07:01:27;;;;;;;21.50;20.30;;;;;;;;;;5091248;28;20839;-71
2021/07/18 07:03:54;;;;;;;22.50;21.20;;;;;;;;;;5092369;28;20450;-71
2021/07/18 07:06:22;;;;;;;21.53;20.23;;;;;;;;;;5090494;28;20482;-70
2021/07/18 07:08:52;;;;;;;21.60;20.40;;;;;;;;;;5090173;28;20947;-71
2021/07/18 07:11:19;;;;;;;21.73;20.43;;;;;;;;;;5091428;28;20446;-71
2021/07/18 07:13:46;;;;;;;21.40;20.20;;;;;;;;;;5089981;28;20469;-71
2021/07/18 07:16:13;;;;;;;21.50;20.40;;;;;;;;;;5088194;28;20519;-71
2021/07/18 07:18:41;;;;;;;21.87;20.67;;;;;;;;;;5091300;28;20449;-71
2021/07/18 07:21:09;;;;;;;22.03;20.80;;;;;;;;;;5078706;28;20565;-71
2021/07/18 07:23:38;;;;;;;21.67;20.57;;;;;;;;;;5081602;28;20507;-71
2021/07/18 07:26:05;;;;;;;21.73;20.50;;;;;;;;;;5084156;28;20467;-71
2021/07/18 07:28:33;;;;;;;21.83;20.60;;;;;;;;;;5094661;28;20495;-72
2021/07/18 07:31:00;;;;;;;21.60;20.37;;;;;;;;;;5090264;28;20454;-71
2021/07/18 07:33:29;;;;;;;21.53;20.30;;;;;;;;;;5095144;28;20460;-70
2021/07/18 07:35:56;;;;;;;22.77;21.40;;;;;;;;;;5095801;28;20482;-70
2021/07/18 07:38:23;;;;;;;22.10;20.80;;;;;;;;;;5089871;28;20450;-69
2021/07/18 07:40:52;;;;;;;21.80;20.60;;;;;;;;;;5095687;28;20446;-71
2021/07/18 07:43:19;;;;;;;22.00;20.77;;;;;;;;;;5085401;28;20450;-71
2021/07/18 07:45:46;;;;;;;21.50;20.40;;;;;;;;;;5089870;28;20452;-70
2021/07/18 07:48:14;;;;;;;21.80;20.60;;;;;;;;;;5085057;28;20489;-70
2021/07/18 07:50:41;;;;;;;21.20;20.03;;;;;;;;;;5075056;28;20960;-69
2021/07/18 07:53:08;;;;;;;20.70;19.50;;;;;;;;;;5075005;28;20455;-69
2021/07/18 07:55:35;;;;;;;21.10;19.80;;;;;;;;;;5085443;28;20482;-69
2021/07/18 07:58:06;;;;;;;21.27;19.93;;;;;;;;;;5095003;28;20981;-68
2021/07/18 08:00:33;;;;;;;20.53;19.43;;;;;;;;;;5094172;28;20878;-69
2021/07/18 08:03:00;;;;;;;20.70;19.50;;;;;;;;;;5077752;28;20450;-68
2021/07/18 08:05:28;;;;;;;20.97;19.57;;;;;;;;;;5095400;28;20438;-70
2021/07/18 08:07:55;;;;;;;20.47;19.27;;;;;;;;;;5094667;28;20508;-69
2021/07/18 08:10:23;;;;;;;20.57;19.30;;;;;;;;;;5094962;28;20441;-70
2021/07/18 08:12:50;;;;;;;20.37;19.23;;;;;;;;;;5095320;28;20452;-69
2021/07/18 08:15:19;;;;;;;20.20;19.10;;;;;;;;;;5093622;28;20948;-73
2021/07/18 08:17:47;;;;;;;20.90;19.60;;;;;;;;;;5094746;28;20480;-73
2021/07/18 08:20:15;;;;;;;19.73;18.63;;;;;;;;;;5094342;28;20954;-73
2021/07/18 08:22:44;;;;;;;19.93;18.90;;;;;;;;;;5090655;28;20446;-71
2021/07/18 08:25:12;;;;;;;20.30;19.10;;;;;;;;;;5093888;28;20529;-71
2021/07/18 08:27:39;;;;;;;20.50;19.33;;;;;;;;;;5094312;28;20496;-71
2021/07/18 08:30:07;;;;;;;21.43;20.00;;;;;;;;;;5094848;28;20442;-71
2021/07/18 08:32:36;;;;;;;20.50;19.30;;;;;;;;;;5094091;28;20446;-71
2021/07/18 08:35:03;;;;;;;20.70;19.60;;;;;;;;;;5095365;28;20485;-70
2021/07/18 08:37:30;;;;;;;20.90;19.70;;;;;;;;;;5094815;28;20466;-71
2021/07/18 08:39:57;;;;;;;22.00;20.70;;;;;;;;;;5095579;28;20453;-71
2021/07/18 08:42:25;;;;;;;21.13;20.03;;;;;;;;;;5095254;28;20446;-71
2021/07/18 08:44:52;;;;;;;21.80;20.70;;;;;;;;;;5095126;28;20951;-72
2021/07/18 08:47:19;;;;;;;21.80;20.60;;;;;;;;;;5085216;28;20475;-71
2021/07/18 08:49:48;;;;;;;21.87;20.70;;;;;;;;;;5075939;28;20451;-71
2021/07/18 08:52:15;;;;;;;21.87;20.67;;;;;;;;;;5075252;28;20458;-71
2021/07/18 08:54:42;;;;;;;21.80;20.60;;;;;;;;;;5075470;28;20443;-71
2021/07/18 08:57:09;;;;;;;22.43;21.23;;;;;;;;;;5076403;28;20478;-71
2021/07/18 08:59:36;;;;;;;22.70;21.40;;;;;;;;;;5074795;28;20457;-71
2021/07/18 09:02:05;;;;;;;22.63;21.33;;;;;;;;;;5074818;28;20457;-70
2021/07/18 09:04:32;;;;;;;22.40;21.30;;;;;;;;;;5075751;28;20446;-71
2021/07/18 09:07:05;;;;;;;23.67;22.37;;;;;;;;;;5075261;28;20483;-71
2021/07/18 09:09:33;;;;;;;23.47;22.17;;;;;;;;;;5076520;28;20914;-71
2021/07/18 09:12:01;;;;;;;22.57;21.37;;;;;;;;;;5094123;28;20476;-70
2021/07/18 09:14:31;;;;;;;22.90;21.50;;;;;;;;;;5094239;28;20803;-70
2021/07/18 09:16:58;;;;;;;23.50;22.30;;;;;;;;;;5093890;28;20831;-71
2021/07/18 09:19:29;;;;;;;22.00;20.90;;;;;;;;;;5093640;28;20956;-71
2021/07/18 09:22:11;;;;;;;21.83;20.73;;;;;;;;;;5093694;28;20993;-71
2021/07/18 09:24:39;;;;;;;21.77;20.67;;;;;;;;;;5094659;28;20450;-70
2021/07/18 09:27:08;;;;;;;21.90;20.67;;;;;;;;;;5092463;28;20989;-72
2021/07/18 09:29:35;;;;;;;22.00;20.90;;;;;;;;;;5093627;28;20445;-72
2021/07/18 09:32:06;;;;;;;21.80;20.63;;;;;;;;;;5094430;28;20438;-71
2021/07/18 09:34:35;;;;;;;22.47;21.27;;;;;;;;;;5095177;28;20818;-71
2021/07/18 09:37:05;;;;;;;22.50;21.40;;;;;;;;;;5094607;28;20458;-71
2021/07/18 09:39:34;;;;;;;22.50;21.30;;;;;;;;;;5093966;28;20438;-71
2021/07/18 09:42:01;;;;;;;22.50;21.30;;;;;;;;;;5093553;28;20456;-72
2021/07/18 09:44:28;;;;;;;22.80;21.60;;;;;;;;;;5093019;28;20442;-72
2021/07/18 09:47:02;;;;;;;21.60;20.50;;;;;;;;;;5094432;28;20469;-71
2021/07/18 09:49:33;;;;;;;22.73;21.53;;;;;;;;;;5093207;28;20431;-71
2021/07/18 09:52:13;;;;;;;22.37;21.27;;;;;;;;;;5093789;28;20446;-71
2021/07/18 09:54:41;;;;;;;22.70;21.60;;;;;;;;;;5093779;28;20811;-71
2021/07/18 09:57:09;;;;;;;21.87;20.60;;;;;;;;;;5094108;28;20466;-72
2021/07/18 09:59:37;;;;;;;21.87;20.77;;;;;;;;;;5093536;28;20933;-71
2021/07/18 10:02:04;;;;;;;21.43;20.33;;;;;;;;;;5090418;28;20965;-71
2021/07/18 10:04:39;;;;;;;22.10;20.90;;;;;;;;;;5094024;28;20445;-71
2021/07/18 10:07:07;;;;;;;23.20;21.93;;;;;;;;;;5094566;28;20492;-71
2021/07/18 10:09:34;;;;;;;23.50;21.97;;;;;;;;;;5092632;28;20447;-71
2021/07/18 10:12:03;;;;;;;23.10;21.80;;;;;;;;;;5086769;28;20461;-71
2021/07/18 10:14:30;;;;;;;21.97;20.87;;;;;;;;;;5073898;28;20446;-71
2021/07/18 10:16:57;;;;;;;22.77;21.47;;;;;;;;;;5073372;28;20483;-71
2021/07/18 10:19:25;;;;;;;22.87;21.67;;;;;;;;;;5073910;28;20455;-71
2021/07/18 10:21:52;;;;;;;22.63;21.53;;;;;;;;;;5074122;28;20451;-71
2021/07/18 10:24:19;;;;;;;23.17;22.03;;;;;;;;;;5083736;28;20446;-71
2021/07/18 10:26:49;;;;;;;23.47;22.27;;;;;;;;;;5093824;28;20981;-71
2021/07/18 10:29:17;;;;;;;23.10;22.00;;;;;;;;;;5093659;28;20446;-71
2021/07/18 10:31:49;;;;;;;24.30;22.90;;;;;;;;;;5093666;28;20450;-71
2021/07/18 10:34:17;;;;;;;23.73;22.40;;;;;;;;;;5093729;28;20430;-71
2021/07/18 10:36:45;;;;;;;23.63;22.43;;;;;;;;;;5093762;28;20485;-71
2021/07/18 10:39:28;;;;;;;22.53;21.40;;;;;;;;;;5084198;28;20457;-70
2021/07/18 10:41:55;;;;;;;23.60;22.40;;;;;;;;;;5073442;28;20500;-71
2021/07/18 10:44:23;;;;;;;22.70;21.50;;;;;;;;;;5073366;28;20465;-71
2021/07/18 10:46:55;;;;;;;22.33;21.23;;;;;;;;;;5072787;28;20822;-71
2021/07/18 10:49:37;;;;;;;22.30;21.10;;;;;;;;;;5072762;28;20450;-70
2021/07/18 10:52:12;;;;;;;22.50;21.30;;;;;;;;;;5073262;28;20453;-71
2021/07/18 10:54:42;;;;;;;23.27;21.97;;;;;;;;;;5073755;28;20448;-72
2021/07/18 10:57:21;;;;;;;22.20;21.20;;;;;;;;;;5086113;28;20482;-71
2021/07/18 10:59:49;;;;;;;22.60;21.30;;;;;;;;;;5091575;28;20466;-71
2021/07/18 11:02:17;;;;;;;28.43;27.10;;;;;;;;;;5091952;28;20453;-71
2021/07/18 11:04:45;;;;;;;22.57;21.37;;;;;;;;;;5092032;28;20941;-71
2021/07/18 11:07:32;;;;;;;22.47;21.27;;;;;;;;;;5107765;22;20437;-64
2021/07/18 11:10:00;;;;;;;22.30;20.90;;;;;;;;;;5029221;28;20456;-67
2021/07/18 11:12:30;;;;;;;21.63;20.43;;;;;;;;;;5032394;28;20530;-68
2021/07/18 11:15:15;;;;;;;21.47;20.27;;;;;;;;;;5031899;28;20451;-68
2021/07/18 11:17:56;;;;;;;21.97;20.77;;;;;;;;;;5021496;28;20485;-68
2021/07/18 11:20:36;;;;;;;21.83;20.73;;;;;;;;;;5032033;28;20444;-68
2021/07/18 11:23:04;;;;;;;21.27;20.17;;;;;;;;;;5031845;28;20451;-67
2021/07/18 11:25:45;;;;;;;20.67;19.67;;;;;;;;;;5031432;28;20543;-68
2021/07/18 11:28:32;;;;;;;20.63;19.63;;;;;;;;;;5031655;28;20467;-68
2021/07/18 11:31:14;;;;;;;21.63;20.53;;;;;;;;;;5031168;28;20452;-68
2021/07/18 11:33:51;;;;;;;21.20;20.20;;;;;;;;;;5031479;28;20468;-67
2021/07/18 11:36:20;;;;;;;21.00;19.90;;;;;;;;;;5031618;28;20523;-68
2021/07/18 11:38:49;;;;;;;21.30;20.30;;;;;;;;;;5043774;28;20476;-67
2021/07/18 11:41:20;;;;;;;21.90;20.80;;;;;;;;;;5051264;28;20526;-68
2021/07/18 11:43:48;;;;;;;21.30;20.10;;;;;;;;;;5051346;28;20447;-69
2021/07/18 11:46:15;;;;;;;21.40;20.30;;;;;;;;;;5051252;28;20943;-68
2021/07/18 11:48:43;;;;;;;21.60;20.40;;;;;;;;;;5050994;28;20994;-68
2021/07/18 11:51:15;;;;;;;21.90;20.70;;;;;;;;;;5051097;28;20456;-68
2021/07/18 11:53:48;;;;;;;21.67;20.50;;;;;;;;;;5049924;28;20452;-68
2021/07/18 11:56:19;;;;;;;21.33;20.33;;;;;;;;;;5050943;28;20477;-68
2021/07/18 11:58:46;;;;;;;21.10;20.00;;;;;;;;;;5051321;28;20834;-68
2021/07/18 12:01:13;;;;;;;21.17;20.07;;;;;;;;;;5051127;28;20448;-68
2021/07/18 12:03:40;;;;;;;21.33;20.30;;;;;;;;;;5051468;28;20811;-68
2021/07/18 12:06:07;;;;;;;21.00;19.67;;;;;;;;;;5051002;28;20830;-67
2021/07/18 12:08:36;;;;;;;20.43;19.33;;;;;;;;;;5037329;28;20491;-67
2021/07/18 12:11:03;;;;;;;20.30;19.40;;;;;;;;;;5031135;28;20828;-68
2021/07/18 12:13:34;;;;;;;20.30;19.30;;;;;;;;;;5034804;28;20455;-67
2021/07/18 12:16:03;;;;;;;20.03;19.03;;;;;;;;;;5034724;28;20476;-68
2021/07/18 12:18:30;;;;;;;20.87;19.87;;;;;;;;;;5034646;28;20855;-67
2021/07/18 12:21:12;;;;;;;19.60;18.70;;;;;;;;;;5034421;28;20454;-67
2021/07/18 12:23:41;;;;;;;20.53;19.47;;;;;;;;;;5034537;28;20822;-68
2021/07/18 12:26:08;;;;;;;20.43;19.43;;;;;;;;;;5034146;28;20441;-68
2021/07/18 12:28:35;;;;;;;20.90;19.90;;;;;;;;;;5034886;28;20464;-68
2021/07/18 12:31:06;;;;;;;19.73;18.67;;;;;;;;;;5036071;28;20479;-68
2021/07/18 12:33:33;;;;;;;20.20;19.20;;;;;;;;;;5034824;28;20441;-68
2021/07/18 12:36:04;;;;;;;20.67;19.20;;;;;;;;;;5034720;28;20477;-68
2021/07/18 12:38:31;;;;;;;19.83;18.83;;;;;;;;;;5034081;28;20468;-67
2021/07/18 12:41:04;;;;;;;20.10;19.10;;;;;;;;;;5034444;28;20436;-70
2021/07/18 12:43:32;;;;;;;19.07;18.07;;;;;;;;;;5033871;28;20539;-68
2021/07/18 12:45:59;;;;;;;19.80;18.90;;;;;;;;;;5034213;28;20449;-67
2021/07/18 12:48:26;;;;;;;20.43;19.43;;;;;;;;;;5029515;28;20510;-68
2021/07/18 12:50:54;;;;;;;19.30;18.40;;;;;;;;;;5033196;28;20445;-68
2021/07/18 12:53:21;;;;;;;19.37;18.27;;;;;;;;;;5032262;28;20471;-66
2021/07/18 12:55:49;;;;;;;18.50;17.50;;;;;;;;;;5030617;28;20448;-68
2021/07/18 12:58:19;;;;;;;18.70;17.70;;;;;;;;;;5032246;28;20949;-68
2021/07/18 13:00:47;;;;;;;18.50;17.60;;;;;;;;;;5032466;28;20464;-68
2021/07/18 13:03:16;;;;;;;18.90;17.70;;;;;;;;;;5032075;28;20939;-66
2021/07/18 13:05:44;;;;;;;18.70;17.60;;;;;;;;;;5035503;28;20959;-66
2021/07/18 13:08:11;;;;;;;18.00;17.10;;;;;;;;;;5032571;28;20482;-66
2021/07/18 13:10:42;;;;;;;18.30;17.30;;;;;;;;;;5030078;28;20448;-67
2021/07/18 13:13:10;;;;;;;17.90;17.00;;;;;;;;;;5032587;28;20453;-66
2021/07/18 13:15:39;;;;;;;18.30;17.40;;;;;;;;;;5033643;28;20453;-66
2021/07/18 13:18:07;;;;;;;17.80;16.83;;;;;;;;;;5033889;28;20499;-66
2021/07/18 13:20:35;;;;;;;18.87;17.63;;;;;;;;;;5032107;28;20453;-66
2021/07/18 13:23:04;;;;;;;17.70;16.80;;;;;;;;;;5032072;28;20460;-67
2021/07/18 13:25:32;;;;;;;18.57;17.50;;;;;;;;;;5032705;28;20456;-67
2021/07/18 13:28:00;;;;;;;17.70;16.80;;;;;;;;;;5032152;28;20468;-67
2021/07/18 13:30:27;;;;;;;19.17;17.87;;;;;;;;;;5032353;28;20449;-66
2021/07/18 13:32:56;;;;;;;17.97;17.07;;;;;;;;;;5031656;28;20444;-67
2021/07/18 13:35:23;;;;;;;18.47;17.47;;;;;;;;;;5031815;28;20455;-67
2021/07/18 13:37:53;;;;;;;19.50;18.50;;;;;;;;;;5031456;28;20863;-66
2021/07/18 13:40:27;;;;;;;34.70;32.60;;;;;;;;;;5031885;28;20464;-66
2021/07/18 13:43:05;;;;;;;18.50;17.70;;;;;;;;;;5030922;28;20444;-66
2021/07/18 13:45:33;;;;;;;24.80;23.40;;;;;;;;;;5032325;28;20498;-67
2021/07/18 13:48:01;;;;;;;19.33;18.40;;;;;;;;;;5031910;28;20470;-68
2021/07/18 13:50:28;;;;;;;24.93;23.63;;;;;;;;;;5031651;28;20475;-67
2021/07/18 13:52:56;;;;;;;22.70;21.40;;;;;;;;;;5031514;28;20992;-71
2021/07/18 13:55:23;;;;;;;26.63;24.80;;;;;;;;;;5031697;28;20454;-70
2021/07/18 13:57:50;;;;;;;18.97;17.90;;;;;;;;;;5031573;28;20857;-70
2021/07/18 14:00:17;;;;;;;21.43;20.23;;;;;;;;;;5034257;28;20457;-70
2021/07/18 14:02:45;;;;;;;19.40;18.43;;;;;;;;;;5031312;28;20449;-70
2021/07/18 14:05:13;;;;;;;18.63;17.67;;;;;;;;;;5031949;28;20459;-70
2021/07/18 14:07:40;;;;;;;19.60;18.70;;;;;;;;;;5031461;28;20476;-71
2021/07/18 14:10:09;;;;;;;18.90;18.00;;;;;;;;;;5031665;28;20882;-71
2021/07/18 14:12:36;;;;;;;19.80;18.70;;;;;;;;;;5031460;28;20471;-70
2021/07/18 14:15:03;;;;;;;19.60;18.60;;;;;;;;;;5026246;28;20455;-70
2021/07/18 14:17:30;;;;;;;18.80;17.90;;;;;;;;;;5030801;28;20578;-69
2021/07/18 14:19:57;;;;;;;19.30;18.20;;;;;;;;;;5031989;28;20965;-70
2021/07/18 14:22:26;;;;;;;19.83;18.80;;;;;;;;;;5030390;28;20448;-69